Flight Track Log - Related Links

Times and Time Zones

All times are in EDT time to prevent confusion due to time zone crossing. See the XOJ552 flight status page for this flight to view local times or setup timezone preferences in your user account.

Time Position Orientation Groundspeed Altitude Reporting Facility
EDT Latitude Longitude Course Direction KTS MPH feet Rate Location/Type
Fri 05:11:51 PM 32.3667 -64.6833 192° South 240 276 2,500  Level New York Oceanic (ODAPS)
Fri 05:15:54 PM 32.0333 -64.7667 192° South 436 502 18,500  Climbing New York Oceanic (ODAPS)
Fri 05:18:00 PM 31.7956 -64.8272 192° South 240 276 2,500 -5,161 Descending FlightAware Transoceanic
Fri 05:19:00 PM 31.6767 -64.8574 192° South 240 276 2,500  Level FlightAware Transoceanic
Fri 05:20:00 PM 31.5578 -64.8875 192° South 240 276 2,500  Level FlightAware Transoceanic
Fri 05:21:00 PM 31.4389 -64.9175 192° South 240 276 2,500 8,000 Level FlightAware Transoceanic
Fri 05:22:00 PM 31.2011 -64.9773 192° South 436 502 18,500 8,000 Climbing FlightAware Transoceanic
Fri 05:23:00 PM 31.0822 -65.0071 192° South 436 502 18,500 13,373 Level FlightAware Transoceanic
Fri 05:23:23 PM 32.0333 -64.7667 192° South 436 502 37,000  Climbing New York Oceanic (ODAPS)
Fri 05:24:00 PM 30.9633 -65.0369 192° South 436 502 18,500 1,538 Descending FlightAware Transoceanic
Fri 05:24:41 PM 32.0333 -64.7667 192° South 436 502 39,000  Climbing New York Oceanic (ODAPS)
Fri 05:25:00 PM 30.8443 -65.0665 192° South 436 502 18,500 -15,570 Descending FlightAware Transoceanic
Fri 05:26:00 PM 30.7254 -65.0961 192° South 436 502 18,500 12,273 Level FlightAware Transoceanic
Fri 05:26:50 PM 32.0333 -64.7667 192° South 436 502 41,000  Climbing New York Oceanic (ODAPS)
Fri 05:27:00 PM 30.6065 -65.1256 192° South 436 502 18,500 -19,286 Descending FlightAware Transoceanic
Fri 05:28:00 PM 30.4875 -65.1550 192° South 436 502 18,500 9,250 Level FlightAware Transoceanic
Fri 05:29:00 PM 30.3685 -65.1844 192° South 436 502 37,000 9,250 Climbing FlightAware Transoceanic
Fri 05:30:00 PM 30.2496 -65.2136 192° South 436 502 37,000 1,000 Level FlightAware Transoceanic
Fri 05:31:00 PM 30.1306 -65.2429 192° South 436 502 39,000 1,000 Climbing FlightAware Transoceanic
Fri 05:32:00 PM 30.0116 -65.2720 192° South 436 502 39,000 1,000 Level FlightAware Transoceanic
Fri 05:33:00 PM 29.8927 -65.3011 192° South 436 502 41,000 1,000 Climbing FlightAware Transoceanic
Fri 05:34:00 PM 29.7737 -65.3301 192° South 436 502 41,000  Level FlightAware Transoceanic
Fri 05:35:00 PM 29.6547 -65.3590 192° South 436 502 41,000  Level FlightAware Transoceanic
Fri 05:36:00 PM 29.5357 -65.3879 192° South 436 502 41,000  Level FlightAware Transoceanic
Fri 05:37:00 PM 29.4167 -65.4167 169° South 436 502 41,000  Level FlightAware Transoceanic
Fri 05:38:00 PM 29.2932 -65.3897 169° South 436 502 41,000  Level FlightAware Transoceanic
Fri 05:39:00 PM 29.1697 -65.3628 169° South 436 502 41,000  Level FlightAware Transoceanic
Fri 05:40:00 PM 29.0462 -65.3359 169° South 436 502 41,000  Level FlightAware Transoceanic
Fri 05:41:00 PM 28.9227 -65.3092 169° South 436 502 41,000  Level FlightAware Transoceanic
Fri 05:42:00 PM 28.7992 -65.2824 169° South 436 502 41,000  Level FlightAware Transoceanic
Fri 05:43:00 PM 28.6757 -65.2558 169° South 436 502 41,000  Level FlightAware Transoceanic
Fri 05:44:00 PM 28.5521 -65.2292 169° South 436 502 41,000  Level FlightAware Transoceanic
Fri 05:44:06 PM 29.4167 -65.4167 169° South 452 520 41,000  Level New York Oceanic (ODAPS)
Fri 05:45:00 PM 28.4286 -65.2027 169° South 436 502 41,000  Level FlightAware Transoceanic
Fri 05:46:00 PM 28.3051 -65.1762 169° South 436 502 41,000  Level FlightAware Transoceanic
Fri 05:47:00 PM 28.1815 -65.1498 169° South 436 502 41,000  Level FlightAware Transoceanic
Fri 05:48:00 PM 28.0580 -65.1235 169° South 436 502 41,000  Level FlightAware Transoceanic
Fri 05:49:00 PM 27.9345 -65.0972 169° South 436 502 41,000  Level FlightAware Transoceanic
Fri 05:50:00 PM 27.8109 -65.0710 169° South 452 520 41,000  Level FlightAware Transoceanic
Fri 05:51:00 PM 27.6874 -65.0448 169° South 452 520 41,000  Level FlightAware Transoceanic
Fri 05:52:00 PM 27.5638 -65.0187 169° South 452 520 41,000  Level FlightAware Transoceanic
Fri 05:53:00 PM 27.4402 -64.9927 169° South 452 520 41,000  Level FlightAware Transoceanic
Fri 05:54:00 PM 27.3167 -64.9667 169° South 452 520 41,000  Level FlightAware Transoceanic
Fri 05:55:00 PM 27.1896 -64.9395 169° South 452 520 41,000  Level FlightAware Transoceanic
Fri 05:56:00 PM 27.0626 -64.9125 169° South 452 520 41,000  Level FlightAware Transoceanic
Fri 05:57:00 PM 26.9356 -64.8854 169° South 452 520 41,000  Level FlightAware Transoceanic
Fri 05:57:45 PM 27.3167 -64.9667 169° South 440 506 41,000  Level New York Oceanic (ODAPS)
Fri 05:58:00 PM 26.8085 -64.8585 169° South 452 520 41,000  Level FlightAware Transoceanic
Fri 05:59:00 PM 26.6814 -64.8316 169° South 452 520 41,000  Level FlightAware Transoceanic
Fri 06:00:00 PM 26.5544 -64.8047 169° South 452 520 41,000  Level FlightAware Transoceanic
Fri 06:01:00 PM 26.4273 -64.7780 169° South 452 520 41,000  Level FlightAware Transoceanic
Fri 06:02:00 PM 26.3003 -64.7513 169° South 452 520 41,000  Level FlightAware Transoceanic
Fri 06:03:00 PM 26.1732 -64.7246 169° South 452 520 41,000  Level FlightAware Transoceanic
Fri 06:04:00 PM 26.0461 -64.6980 169° South 440 506 41,000  Level FlightAware Transoceanic
Fri 06:05:00 PM 25.9190 -64.6715 169° South 440 506 41,000  Level FlightAware Transoceanic
Fri 06:06:00 PM 25.7919 -64.6450 169° South 440 506 41,000  Level FlightAware Transoceanic
Fri 06:07:00 PM 25.6648 -64.6186 169° South 440 506 41,000  Level FlightAware Transoceanic
Fri 06:08:00 PM 25.5377 -64.5922 169° South 440 506 41,000  Level FlightAware Transoceanic
Fri 06:09:00 PM 25.4106 -64.5659 169° South 440 506 41,000  Level FlightAware Transoceanic
Fri 06:10:00 PM 25.2835 -64.5396 169° South 440 506 41,000  Level FlightAware Transoceanic
Fri 06:11:00 PM 25.1564 -64.5134 169° South 440 506 41,000  Level FlightAware Transoceanic
Fri 06:12:00 PM 25.0293 -64.4872 169° South 440 506 41,000  Level FlightAware Transoceanic
Fri 06:13:00 PM 24.9022 -64.4612 169° South 440 506 41,000  Level FlightAware Transoceanic
Fri 06:14:00 PM 24.7751 -64.4351 169° South 440 506 41,000  Level FlightAware Transoceanic
Fri 06:15:00 PM 24.6479 -64.4091 169° South 440 506 41,000  Level FlightAware Transoceanic
Fri 06:16:00 PM 24.5208 -64.3832 169° South 440 506 41,000  Level FlightAware Transoceanic
Fri 06:17:00 PM 24.3937 -64.3573 170° South 440 506 41,000  Level FlightAware Transoceanic
Fri 06:18:00 PM 24.2665 -64.3315 170° South 440 506 41,000  Level FlightAware Transoceanic
Fri 06:19:00 PM 24.1394 -64.3057 170° South 440 506 41,000  Level FlightAware Transoceanic
Fri 06:20:00 PM 24.0122 -64.2800 170° South 440 506 41,000  Level FlightAware Transoceanic
Fri 06:21:00 PM 23.8851 -64.2543 170° South 440 506 41,000  Level FlightAware Transoceanic
Fri 06:22:00 PM 23.7579 -64.2286 170° South 440 506 41,000  Level FlightAware Transoceanic
Fri 06:23:00 PM 23.6307 -64.2031 170° South 440 506 41,000  Level FlightAware Transoceanic
Fri 06:24:00 PM 23.5036 -64.1775 170° South 440 506 41,000  Level FlightAware Transoceanic
Fri 06:25:00 PM 23.3764 -64.1520 170° South 440 506 41,000  Level FlightAware Transoceanic
Fri 06:26:00 PM 23.2492 -64.1266 170° South 440 506 41,000  Level FlightAware Transoceanic
Fri 06:27:00 PM 23.1220 -64.1012 170° South 440 506 41,000  Level FlightAware Transoceanic
Fri 06:28:00 PM 22.9949 -64.0759 170° South 440 506 41,000  Level FlightAware Transoceanic
Fri 06:29:00 PM 22.8677 -64.0506 170° South 440 506 41,000  Level FlightAware Transoceanic
Fri 06:30:00 PM 22.7405 -64.0254 170° South 440 506 41,000  Level FlightAware Transoceanic
Fri 06:31:00 PM 22.6133 -64.0002 170° South 440 506 41,000  Level FlightAware Transoceanic
Fri 06:31:43 PM 22.8333 -64.0333 170° South 448 516 41,000  Level New York Oceanic (ODAPS)
Fri 06:32:00 PM 22.4861 -63.9750 170° South 440 506 41,000  Level FlightAware Transoceanic
Fri 06:33:00 PM 22.3589 -63.9499 170° South 440 506 41,000  Level FlightAware Transoceanic
Fri 06:34:00 PM 22.2316 -63.9249 170° South 440 506 41,000  Level FlightAware Transoceanic
Fri 06:35:00 PM 22.1044 -63.8999 170° South 440 506 41,000  Level FlightAware Transoceanic
Fri 06:36:00 PM 21.9772 -63.8749 170° South 440 506 41,000  Level FlightAware Transoceanic
Fri 06:37:00 PM 21.8500 -63.8500 170° South 440 506 41,000  Level FlightAware Transoceanic
Fri 06:38:00 PM 21.7229 -63.8248 170° South 448 516 41,000  Level FlightAware Transoceanic
Fri 06:39:00 PM 21.5958 -63.7996 170° South 448 516 41,000  Level FlightAware Transoceanic
Fri 06:40:00 PM 21.4687 -63.7744 170° South 448 516 41,000  Level FlightAware Transoceanic
Fri 06:40:51 PM 21.4500 -63.7500 170° South 460 529 41,000  Level San Juan Center
Fri 06:41:00 PM 21.3415 -63.7493 170° South 448 516 41,000  Level FlightAware Transoceanic
Fri 06:41:51 PM 21.3500 -63.7333 171° South 470 541 41,000  Level San Juan Center
Fri 06:42:00 PM 21.2144 -63.7243 170° South 448 516 41,000  Level FlightAware Transoceanic
Fri 06:42:51 PM 21.1833 -63.7000 169° South 460 529 41,000  Level San Juan Center
Fri 06:43:00 PM 21.0873 -63.6993 170° South 448 516 41,000  Level FlightAware Transoceanic
Fri 06:43:52 PM 21.0667 -63.6833 172° South 460 529 41,000  Level San Juan Center
Fri 06:44:00 PM 20.9601 -63.6743 170° South 448 516 41,000  Level FlightAware Transoceanic
Fri 06:44:52 PM 20.9333 -63.6667 173° South 460 529 41,000  Level San Juan Center
Fri 06:45:00 PM 20.8330 -63.6494 170° South 448 516 41,000  Level FlightAware Transoceanic
Fri 06:45:52 PM 20.8167 -63.6333 165° South 450 518 41,000  Level San Juan Center
Fri 06:46:00 PM 20.7058 -63.6245 170° South 448 516 41,000  Level FlightAware Transoceanic
Fri 06:46:53 PM 20.6833 -63.6167 173° South 470 541 41,000  Level San Juan Center
Fri 06:47:53 PM 20.5667 -63.6000 172° South 450 518 41,000  Level San Juan Center
Fri 06:48:53 PM 20.4500 -63.5667 165° South 440 506 41,000  Level San Juan Center
Fri 06:49:54 PM 20.3000 -63.5333 168° South 470 541 41,000  Level San Juan Center
Fri 06:50:54 PM 20.1833 -63.5000 165° South 460 529 41,000 -50 Level San Juan Center
Fri 06:51:54 PM 20.0500 -63.4833 173° South 460 529 40,900 -1,240 Descending San Juan Center
Fri 06:52:55 PM 19.9333 -63.4667 172° South 450 518 38,500 -2,380 Descending San Juan Center
Fri 06:53:55 PM 19.8000 -63.4333 167° South 450 518 36,100 -2,400 Descending San Juan Center
Fri 06:54:55 PM 19.6833 -63.4167 172° South 450 518 33,700 -2,450 Descending San Juan Center
Fri 06:55:55 PM 19.5500 -63.4000 173° South 460 529 31,200 -2,380 Descending San Juan Center
Fri 06:56:56 PM 19.4167 -63.3667 167° South 480 552 28,900 -2,430 Descending San Juan Center
Fri 06:57:56 PM 19.2833 -63.3500 173° South 480 552 26,300 -2,450 Descending San Juan Center
Fri 06:58:56 PM 19.1500 -63.3167 167° South 470 541 24,000 -2,300 Descending San Juan Center
Fri 06:59:56 PM 19.0333 -63.3000 172° South 450 518 21,700 -2,100 Descending San Juan Center
Fri 07:00:56 PM 18.9333 -63.2833 171° South 430 495 19,800 -1,983 Descending San Juan Center
Fri 07:01:57 PM 18.8167 -63.2667 172° South 410 472 17,700 -1,736 Descending San Juan Center
Fri 07:02:57 PM 18.7167 -63.2500 171° South 370 426 16,300 -1,600 Descending San Juan Center
Fri 07:03:57 PM 18.6500 -63.2333 167° South 300 345 14,500 -1,636 Descending San Juan Center
Fri 07:04:58 PM 18.5667 -63.2167 169° South 290 334 13,000 -1,475 Descending San Juan Center
Fri 07:06:00 PM 18.4512 -63.1878 167° South  Level FlightAware Approximate
Fri 07:13:00 PM 18.0410 -63.1089 162° South  Level Estimated
Fri 07:14:00 PM 18.0410 -63.1089 162° South  Level Estimated
Fri 07:15:00 PM 18.0410 -63.1089 162° South  Level Estimated
Fri 07:16:00 PM 18.0410 -63.1089 162° South  Level Estimated
Fri 07:17:00 PM 18.0410 -63.1089 162° South  Level Estimated
Fri 07:18:00 PM 18.0410 -63.1089 162° South  Level Estimated

Login

Don't have an account? Register now (free) for customized features, flight alerts, and more!